Sarah Schulte — 5BPA3 — position and weather

sailwx.info

Track history (hours):
 
Tides and Currents Weather Stations Pressure Air Temp Water Temp Dewpoint Dewpoint Depression Visibility Wind Speed Wind Dir Waves Ship Positions

Sarah Schulte

Last reported at 2017-Sep-19 18:38 UTC. Time now 2017-Sep-22 12:00 UTC.
Position N 01°15' E 104°03'.

Length 222 m; draft 8.1 m.

Type: Ship. MMSI: 210409000.

Date/timePositionNaut miles runAvg speedWind from/ knotsBaromVisibWave heightAir tempDewpointWater temp
2017-Sep-19 18:38N 01°15' E 104°03'0 2.7
2017-Sep-19 18:28N 01°15' E 104°02'1 2.4
2017-Sep-19 17:59N 01°15' E 104°01'1 2.3
2017-Sep-19 17:30N 01°14' E 103°60'1 2.4
2017-Sep-19 17:00N 01°14' E 103°59'1 2.4
2017-Sep-19 16:30N 01°14' E 103°58'3 0.4
2017-Sep-19 07:50N 01°15' E 104°01'411.7
2017-Sep-19 07:29N 01°13' E 103°57'611.6
2017-Sep-19 07:00N 01°11' E 103°52'5 9.1
2017-Sep-19 06:30N 01°13' E 103°48'4 8.4
2017-Sep-19 06:01N 01°17' E 103°45'0 0.3
2017-Sep-19 05:30N 01°17' E 103°45'0 0.0
2017-Sep-19 04:51N 01°17' E 103°45'0 0.0
2017-Sep-19 04:30N 01°17' E 103°45'0 0.0
2017-Sep-19 03:54N 01°17' E 103°45'0 0.0
2017-Sep-19 03:30N 01°17' E 103°45'0 0.0
2017-Sep-19 02:56N 01°17' E 103°45'0 0.0
2017-Sep-19 02:30N 01°17' E 103°45'0 0.0
2017-Sep-19 02:00N 01°17' E 103°45'0 0.0
2017-Sep-19 01:30N 01°17' E 103°45'0 0.0
2017-Sep-19 00:57N 01°17' E 103°45'0 0.0
2017-Sep-19 00:30N 01°17' E 103°45'0 0.0
2017-Sep-19 00:01N 01°17' E 103°45'0 0.0
2017-Sep-18 23:30N 01°17' E 103°45'0 0.0
2017-Sep-18 22:57N 01°17' E 103°45'0 0.0
2017-Sep-18 22:30N 01°17' E 103°45'0 0.0
2017-Sep-18 22:01N 01°17' E 103°45'0 0.0
2017-Sep-18 21:31N 01°17' E 103°45'0 0.0
2017-Sep-18 20:55N 01°17' E 103°45'0 0.0
2017-Sep-18 20:30N 01°17' E 103°45'0 0.0
2017-Sep-18 20:00N 01°17' E 103°45'0 0.0
2017-Sep-18 19:30N 01°17' E 103°45'0 0.0
2017-Sep-18 18:56N 01°17' E 103°45'0 0.3
2017-Sep-18 18:30N 01°17' E 103°45'1 1.1
2017-Sep-18 18:00N 01°16' E 103°46'0 0.8
2017-Sep-18 17:30N 01°16' E 103°46'3 5.2
2017-Sep-18 16:54N 01°15' E 103°49'0 0.0
2017-Sep-18 16:18N 01°15' E 103°49'0 0.1
2017-Sep-18 16:00N 01°15' E 103°49'0 0.0
2017-Sep-18 15:27N 01°15' E 103°49'0 0.0
2017-Sep-18 14:57N 01°15' E 103°49'0 0.2
2017-Sep-18 14:21N 01°15' E 103°49'0 0.2
2017-Sep-18 13:54N 01°15' E 103°49'0 0.1
2017-Sep-18 13:18N 01°15' E 103°49'0 0.0
2017-Sep-18 12:51N 01°15' E 103°49'0 0.0
2017-Sep-18 12:24N 01°15' E 103°49'0 0.1
2017-Sep-18 11:51N 01°15' E 103°49'0 0.0
2017-Sep-18 11:27N 01°15' E 103°49'0 0.0
2017-Sep-18 11:00N 01°15' E 103°49'0 0.0
2017-Sep-18 10:15N 01°15' E 103°49'0 0.2
2017-Sep-18 09:51N 01°15' E 103°48'0 0.0
2017-Sep-18 09:15N 01°15' E 103°48'0 0.1
2017-Sep-18 09:00N 01°15' E 103°48'0 0.0
2017-Sep-18 08:30N 01°15' E 103°48'0 0.0
2017-Sep-18 07:54N 01°15' E 103°48'0 0.3
2017-Sep-18 07:27N 01°15' E 103°49'0 0.1
2017-Sep-18 07:00N 01°15' E 103°49'0 0.4
2017-Sep-18 06:30N 01°15' E 103°49'0 0.1
2017-Sep-18 05:57N 01°15' E 103°49'0 0.2
2017-Sep-18 05:27N 01°15' E 103°48'0 0.0
2017-Sep-18 05:00N 01°15' E 103°48'0 0.0
2017-Sep-18 04:27N 01°15' E 103°48'0 0.0
2017-Sep-18 03:48N 01°15' E 103°48'0 0.2
2017-Sep-18 03:21N 01°15' E 103°49'0 0.0
2017-Sep-18 02:57N 01°15' E 103°49'0 0.1
2017-Sep-18 02:24N 01°15' E 103°48'0 0.0
2017-Sep-18 01:54N 01°15' E 103°48'0 0.0
2017-Sep-18 01:27N 01°15' E 103°48'0 0.1
2017-Sep-18 00:48N 01°15' E 103°49'0 0.0
2017-Sep-18 00:27N 01°15' E 103°49'0 0.1
2017-Sep-18 00:00N 01°15' E 103°48'0 0.2
2017-Sep-17 23:31N 01°15' E 103°49'2 4.1
2017-Sep-17 23:01N 01°15' E 103°47'510.2
2017-Sep-17 22:30N 01°13' E 103°42'510.9
2017-Sep-17 22:00N 01°13' E 103°36'4 7.3
2017-Sep-17 21:30N 01°11' E 103°33'2 3.4
2017-Sep-17 21:00N 01°10' E 103°31'0 0.6
2017-Sep-17 20:30N 01°10' E 103°32'0 0.9
2017-Sep-17 20:00N 01°10' E 103°31'0 0.4
2017-Sep-17 19:30N 01°10' E 103°31'0 0.9
2017-Sep-17 19:01N 01°10' E 103°32'3 6.6
2017-Sep-17 18:30N 01°14' E 103°32'611.2
2017-Sep-17 17:59N 01°20' E 103°33'2 0.2
2017-Sep-17 10:32N 01°21' E 103°33'0 0.0
2017-Sep-17 09:32N 01°21' E 103°33'0 0.0
2017-Sep-17 05:35N 01°21' E 103°33'0 0.1
2017-Sep-17 05:29N 01°21' E 103°33'0 0.0
2017-Sep-17 04:34N 01°21' E 103°33'0 0.0
2017-Sep-17 04:19N 01°21' E 103°33'0 0.0
2017-Sep-17 02:08N 01°21' E 103°33'0 0.4
2017-Sep-17 01:59N 01°21' E 103°33'2 3.9
2017-Sep-17 01:30N 01°19' E 103°33'611.7
2017-Sep-17 01:01N 01°14' E 103°32'713.1
2017-Sep-17 00:31N 01°11' E 103°39'713.2
2017-Sep-17 00:00N 01°09' E 103°45'815.1
2017-Sep-16 23:30N 01°12' E 103°51'815.6
2017-Sep-16 22:59N 01°15' E 103°59'  
2017-Sep-12 20:40N 22°22' E 119°58'514.3
2017-Sep-12 20:20N 22°27' E 119°58'412.1
2017-Sep-12 20:00N 22°30' E 120°00'713.8
2017-Sep-12 19:31N 22°32' E 120°08'714.1
2017-Sep-12 19:00N 22°33' E 120°15'4 6.6
2017-Sep-12 18:23N 22°33' E 120°20'0 0.0
2017-Sep-12 10:24N 22°33' E 120°20'2 5.8
2017-Sep-12 10:00N 22°33' E 120°17'4 7.0
2017-Sep-12 09:30N 22°32' E 120°13'612.6
2017-Sep-12 09:00N 22°37' E 120°09'917.6
2017-Sep-12 08:31N 22°44' E 120°04'1120.3
2017-Sep-12 07:59N 22°52' E 119°56'90 5.5
2017-Sep-11 15:29N 24°17' E 120°31'4512.5
2017-Sep-11 11:51N 25°02' E 120°23'28317.0
2017-Sep-10 19:13N 29°21' E 122°31'416.7
2017-Sep-10 18:58N 29°25' E 122°31'1016.9
2017-Sep-10 18:21N 29°36' E 122°28'617.1
2017-Sep-10 18:00N 29°40' E 122°24'815.2
2017-Sep-10 17:30N 29°46' E 122°18'611.4
2017-Sep-10 17:01N 29°50' E 122°13'713.0
2017-Sep-10 16:30N 29°55' E 122°08'611.4
2017-Sep-10 16:00N 29°55' E 122°02'610.9
2017-Sep-10 15:30N 29°57' E 121°56'4 7.1
2017-Sep-10 14:59N 29°56' E 121°52'0 0.0
2017-Sep-10 13:40N 29°56' E 121°52'0 0.0
2017-Sep-10 13:28N 29°56' E 121°52'0 0.0
2017-Sep-10 12:58N 29°56' E 121°52'0 0.0
2017-Sep-10 11:28N 29°56' E 121°52'0 0.0
2017-Sep-10 10:58N 29°56' E 121°52'0 0.0
2017-Sep-10 10:22N 29°56' E 121°52'0 0.0
2017-Sep-10 09:53N 29°56' E 121°52'0 0.0
2017-Sep-10 09:04N 29°56' E 121°52'0 0.0
2017-Sep-10 08:53N 29°56' E 121°52'0 0.0
2017-Sep-10 08:28N 29°56' E 121°52'0 0.0
2017-Sep-10 07:58N 29°56' E 121°52'0 0.0
2017-Sep-10 07:28N 29°56' E 121°52'0 0.0
2017-Sep-10 06:58N 29°56' E 121°52'0 0.0
2017-Sep-10 06:30N 29°56' E 121°52'2 3.2
2017-Sep-10 06:00N 29°57' E 121°53'510.4
2017-Sep-10 05:31N 29°58' E 121°59'612.7
2017-Sep-10 05:00N 29°56' E 122°06'612.6
2017-Sep-10 04:31N 29°52' E 122°12'612.2
2017-Sep-10 04:00N 29°47' E 122°16'5 9.1
2017-Sep-10 03:30N 29°45' E 122°21'3 6.7
2017-Sep-10 03:00N 29°44' E 122°25'4 7.0
2017-Sep-10 02:30N 29°43' E 122°29'4 8.7
2017-Sep-10 02:00N 29°42' E 122°33'4 8.6
2017-Sep-10 01:30N 29°43' E 122°38'1 1.4
2017-Sep-10 01:00N 29°43' E 122°39'3 3.7
2017-Sep-10 00:14N 29°43' E 122°42'4 7.5
2017-Sep-09 23:40N 29°43' E 122°47'2 8.9
2017-Sep-09 23:28N 29°44' E 122°48'611.9
2017-Sep-09 22:56N 29°50' E 122°51'  
Track history (hours):
 
Tides and Currents Weather Stations Pressure Air Temp Water Temp Dewpoint Dewpoint Depression Visibility Wind Speed Wind Dir Waves Ship Positions

Sarah Schulte

Last reported at 2017-Sep-19 18:38 UTC. Time now 2017-Sep-22 12:00 UTC.
Position N 01°15' E 104°03'.

Length 222 m; draft 8.1 m.

Type: Ship. MMSI: 210409000.

Date/timePositionNaut miles runAvg speedWind from/ knotsBaromVisibWave heightAir tempDewpointWater temp
2017-Sep-19 18:38N 01°15' E 104°03'0 2.7
2017-Sep-19 18:28N 01°15' E 104°02'1 2.4
2017-Sep-19 17:59N 01°15' E 104°01'1 2.3
2017-Sep-19 17:30N 01°14' E 103°60'1 2.4
2017-Sep-19 17:00N 01°14' E 103°59'1 2.4
2017-Sep-19 16:30N 01°14' E 103°58'3 0.4
2017-Sep-19 07:50N 01°15' E 104°01'411.7
2017-Sep-19 07:29N 01°13' E 103°57'611.6
2017-Sep-19 07:00N 01°11' E 103°52'5 9.1
2017-Sep-19 06:30N 01°13' E 103°48'4 8.4
2017-Sep-19 06:01N 01°17' E 103°45'0 0.3
2017-Sep-19 05:30N 01°17' E 103°45'0 0.0
2017-Sep-19 04:51N 01°17' E 103°45'0 0.0
2017-Sep-19 04:30N 01°17' E 103°45'0 0.0
2017-Sep-19 03:54N 01°17' E 103°45'0 0.0
2017-Sep-19 03:30N 01°17' E 103°45'0 0.0
2017-Sep-19 02:56N 01°17' E 103°45'0 0.0
2017-Sep-19 02:30N 01°17' E 103°45'0 0.0
2017-Sep-19 02:00N 01°17' E 103°45'0 0.0
2017-Sep-19 01:30N 01°17' E 103°45'0 0.0
2017-Sep-19 00:57N 01°17' E 103°45'0 0.0
2017-Sep-19 00:30N 01°17' E 103°45'0 0.0
2017-Sep-19 00:01N 01°17' E 103°45'0 0.0
2017-Sep-18 23:30N 01°17' E 103°45'0 0.0
2017-Sep-18 22:57N 01°17' E 103°45'0 0.0
2017-Sep-18 22:30N 01°17' E 103°45'0 0.0
2017-Sep-18 22:01N 01°17' E 103°45'0 0.0
2017-Sep-18 21:31N 01°17' E 103°45'0 0.0
2017-Sep-18 20:55N 01°17' E 103°45'0 0.0
2017-Sep-18 20:30N 01°17' E 103°45'0 0.0
2017-Sep-18 20:00N 01°17' E 103°45'0 0.0
2017-Sep-18 19:30N 01°17' E 103°45'0 0.0
2017-Sep-18 18:56N 01°17' E 103°45'0 0.3
2017-Sep-18 18:30N 01°17' E 103°45'1 1.1
2017-Sep-18 18:00N 01°16' E 103°46'0 0.8
2017-Sep-18 17:30N 01°16' E 103°46'3 5.2
2017-Sep-18 16:54N 01°15' E 103°49'0 0.0
2017-Sep-18 16:18N 01°15' E 103°49'0 0.1
2017-Sep-18 16:00N 01°15' E 103°49'0 0.0
2017-Sep-18 15:27N 01°15' E 103°49'0 0.0
2017-Sep-18 14:57N 01°15' E 103°49'0 0.2
2017-Sep-18 14:21N 01°15' E 103°49'0 0.2
2017-Sep-18 13:54N 01°15' E 103°49'0 0.1
2017-Sep-18 13:18N 01°15' E 103°49'0 0.0
2017-Sep-18 12:51N 01°15' E 103°49'0 0.0
2017-Sep-18 12:24N 01°15' E 103°49'0 0.1
2017-Sep-18 11:51N 01°15' E 103°49'0 0.0
2017-Sep-18 11:27N 01°15' E 103°49'0 0.0
2017-Sep-18 11:00N 01°15' E 103°49'0 0.0
2017-Sep-18 10:15N 01°15' E 103°49'0 0.2
2017-Sep-18 09:51N 01°15' E 103°48'0 0.0
2017-Sep-18 09:15N 01°15' E 103°48'0 0.1
2017-Sep-18 09:00N 01°15' E 103°48'0 0.0
2017-Sep-18 08:30N 01°15' E 103°48'0 0.0
2017-Sep-18 07:54N 01°15' E 103°48'0 0.3
2017-Sep-18 07:27N 01°15' E 103°49'0 0.1
2017-Sep-18 07:00N 01°15' E 103°49'0 0.4
2017-Sep-18 06:30N 01°15' E 103°49'0 0.1
2017-Sep-18 05:57N 01°15' E 103°49'0 0.2
2017-Sep-18 05:27N 01°15' E 103°48'0 0.0
2017-Sep-18 05:00N 01°15' E 103°48'0 0.0
2017-Sep-18 04:27N 01°15' E 103°48'0 0.0
2017-Sep-18 03:48N 01°15' E 103°48'0 0.2
2017-Sep-18 03:21N 01°15' E 103°49'0 0.0
2017-Sep-18 02:57N 01°15' E 103°49'0 0.1
2017-Sep-18 02:24N 01°15' E 103°48'0 0.0
2017-Sep-18 01:54N 01°15' E 103°48'0 0.0
2017-Sep-18 01:27N 01°15' E 103°48'0 0.1
2017-Sep-18 00:48N 01°15' E 103°49'0 0.0
2017-Sep-18 00:27N 01°15' E 103°49'0 0.1
2017-Sep-18 00:00N 01°15' E 103°48'0 0.2
2017-Sep-17 23:31N 01°15' E 103°49'2 4.1
2017-Sep-17 23:01N 01°15' E 103°47'510.2
2017-Sep-17 22:30N 01°13' E 103°42'510.9
2017-Sep-17 22:00N 01°13' E 103°36'4 7.3
2017-Sep-17 21:30N 01°11' E 103°33'2 3.4
2017-Sep-17 21:00N 01°10' E 103°31'0 0.6
2017-Sep-17 20:30N 01°10' E 103°32'0 0.9
2017-Sep-17 20:00N 01°10' E 103°31'0 0.4
2017-Sep-17 19:30N 01°10' E 103°31'0 0.9
2017-Sep-17 19:01N 01°10' E 103°32'3 6.6
2017-Sep-17 18:30N 01°14' E 103°32'611.2
2017-Sep-17 17:59N 01°20' E 103°33'2 0.2
2017-Sep-17 10:32N 01°21' E 103°33'0 0.0
2017-Sep-17 09:32N 01°21' E 103°33'0 0.0
2017-Sep-17 05:35N 01°21' E 103°33'0 0.1
2017-Sep-17 05:29N 01°21' E 103°33'0 0.0
2017-Sep-17 04:34N 01°21' E 103°33'0 0.0
2017-Sep-17 04:19N 01°21' E 103°33'0 0.0
2017-Sep-17 02:08N 01°21' E 103°33'0 0.4
2017-Sep-17 01:59N 01°21' E 103°33'2 3.9
2017-Sep-17 01:30N 01°19' E 103°33'611.7
2017-Sep-17 01:01N 01°14' E 103°32'713.1
2017-Sep-17 00:31N 01°11' E 103°39'713.2
2017-Sep-17 00:00N 01°09' E 103°45'815.1
2017-Sep-16 23:30N 01°12' E 103°51'815.6
2017-Sep-16 22:59N 01°15' E 103°59'  
2017-Sep-12 20:40N 22°22' E 119°58'514.3
2017-Sep-12 20:20N 22°27' E 119°58'412.1
2017-Sep-12 20:00N 22°30' E 120°00'713.8
2017-Sep-12 19:31N 22°32' E 120°08'714.1
2017-Sep-12 19:00N 22°33' E 120°15'4 6.6
2017-Sep-12 18:23N 22°33' E 120°20'0 0.0
2017-Sep-12 10:24N 22°33' E 120°20'2 5.8
2017-Sep-12 10:00N 22°33' E 120°17'4 7.0
2017-Sep-12 09:30N 22°32' E 120°13'612.6
2017-Sep-12 09:00N 22°37' E 120°09'917.6
2017-Sep-12 08:31N 22°44' E 120°04'1120.3
2017-Sep-12 07:59N 22°52' E 119°56'90 5.5
2017-Sep-11 15:29N 24°17' E 120°31'4512.5
2017-Sep-11 11:51N 25°02' E 120°23'28317.0
2017-Sep-10 19:13N 29°21' E 122°31'416.7
2017-Sep-10 18:58N 29°25' E 122°31'1016.9
2017-Sep-10 18:21N 29°36' E 122°28'617.1
2017-Sep-10 18:00N 29°40' E 122°24'815.2
2017-Sep-10 17:30N 29°46' E 122°18'611.4
2017-Sep-10 17:01N 29°50' E 122°13'713.0
2017-Sep-10 16:30N 29°55' E 122°08'611.4
2017-Sep-10 16:00N 29°55' E 122°02'610.9
2017-Sep-10 15:30N 29°57' E 121°56'4 7.1
2017-Sep-10 14:59N 29°56' E 121°52'0 0.0
2017-Sep-10 13:40N 29°56' E 121°52'0 0.0
2017-Sep-10 13:28N 29°56' E 121°52'0 0.0
2017-Sep-10 12:58N 29°56' E 121°52'0 0.0
2017-Sep-10 11:28N 29°56' E 121°52'0 0.0
2017-Sep-10 10:58N 29°56' E 121°52'0 0.0
2017-Sep-10 10:22N 29°56' E 121°52'0 0.0
2017-Sep-10 09:53N 29°56' E 121°52'0 0.0
2017-Sep-10 09:04N 29°56' E 121°52'0 0.0
2017-Sep-10 08:53N 29°56' E 121°52'0 0.0
2017-Sep-10 08:28N 29°56' E 121°52'0 0.0
2017-Sep-10 07:58N 29°56' E 121°52'0 0.0
2017-Sep-10 07:28N 29°56' E 121°52'0 0.0
2017-Sep-10 06:58N 29°56' E 121°52'0 0.0
2017-Sep-10 06:30N 29°56' E 121°52'2 3.2
2017-Sep-10 06:00N 29°57' E 121°53'510.4
2017-Sep-10 05:31N 29°58' E 121°59'612.7
2017-Sep-10 05:00N 29°56' E 122°06'612.6
2017-Sep-10 04:31N 29°52' E 122°12'612.2
2017-Sep-10 04:00N 29°47' E 122°16'5 9.1
2017-Sep-10 03:30N 29°45' E 122°21'3 6.7
2017-Sep-10 03:00N 29°44' E 122°25'4 7.0
2017-Sep-10 02:30N 29°43' E 122°29'4 8.7
2017-Sep-10 02:00N 29°42' E 122°33'4 8.6
2017-Sep-10 01:30N 29°43' E 122°38'1 1.4
2017-Sep-10 01:00N 29°43' E 122°39'3 3.7
2017-Sep-10 00:14N 29°43' E 122°42'4 7.5
2017-Sep-09 23:40N 29°43' E 122°47'2 8.9
2017-Sep-09 23:28N 29°44' E 122°48'611.9
2017-Sep-09 22:56N 29°50' E 122°51'  

Dump ship's entire track history